x

Buoy B01 - Western Maine Shelf (44030) Wave Buoy

4:04pm - Wed 22nd Nov 2017 All times are EST. -5 hours from GMT.

  • Sig Wave height 2.3ft
  • Peak Period 3s
  • Wind
    18mph, 22mph gusts
  • Sea Temp 48°f
  • Air Temp 45°f
  • Sea Pressure 1008.9mb
  • Buoy B01 - Western Maine Shelf
  • Buoy B01 - Western Maine Shelf

More Historic Weather Station data

Upgrade to MSW Pro to gain access to the past 30 days of data for over 8000 Wavebouys and Weather Stations around the globe.

Join

Comparision Forecast

View Surf forecast
   
Wed 11/22 4:04pm 2.5ft 3s 18 22 mph 1008.9mb 48f 45f
3:04pm 2.5ft 6s 18 22 mph 1008.9mb 48f 45f
2:04pm 2.5ft 6s 7 9 mph 1008.6mb 48f 50f
1:04pm 2.5ft 6s 9 9 mph 1009.7mb 48f 50f
12:04pm 3.5ft 6s 11 13 mph 1010.9mb 48f 50f
11:04am 3ft 8s 16 18 mph 1012.2mb 48f 50f
10:04am 3ft 5s 11 13 mph 1013mb 48f 49f
9:04am 3ft 6s 9 11 mph 1014.2mb 48f 49f
8:04am 3ft 6s 2 2 mph 1015mb 48f 48f
7:04am 3ft 5s 2 2 mph 1014.9mb 48f 49f
6:04am 3ft 6s 4 7 mph 1015.3mb 48f 49f
5:04am 3ft 5s 9 11 mph 1015.8mb 47f 49f
3:04am 3.5ft 5s 13 16 mph 1015.6mb 48f 49f
Tue 11/21 11:04pm 4.5ft 6s 16 18 mph 1016.2mb 48f 50f
10:04pm 4.5ft 6s 18 20 mph 1015.9mb 48f 50f
9:04pm 5ft 6s 16 20 mph 1016.3mb 48f 50f
8:04pm 5ft 6s 20 22 mph 1016mb 48f 50f
7:04pm 5ft 5s 18 20 mph 1015.8mb 48f 51f
6:04pm 5ft 6s 20 25 mph 1015mb 49f 51f
4:04pm 4ft 5s 22 27 mph 1014.2mb 49f 52f
3:04pm 4.5ft 5s 22 27 mph 1014.2mb 49f 52f
2:04pm 3.5ft 5s 18 22 mph 1014.6mb 49f 52f
1:04pm 3.5ft 5s 20 25 mph 1015mb 49f 51f
12:04pm 3.5ft 4s 13 16 mph 1016.6mb 49f 47f
11:04am 4.5ft 5s 20 22 mph 1017.9mb 49f 45f
10:04am 3.5ft 5s 20 25 mph 1018.7mb 49f 44f
9:04am 3.5ft 5s 20 22 mph 1019.3mb 49f 43f
8:04am 3.5ft 5s 18 20 mph 1019.4mb 49f 43f
7:04am 3ft 5s 20 25 mph 1019.3mb 49f 43f
6:04am 3ft 4s 18 20 mph 1019mb 49f 44f
5:04am 3ft 4s 20 22 mph 1018.7mb 49f 43f
3:04am 2.5ft 3s 20 22 mph 1018.3mb 49f 43f
2:04am 2.5ft 4s 20 25 mph 1018.7mb 49f 43f
1:04am 2.5ft 4s 20 25 mph 1017.8mb 49f 42f
12:04am 2ft 4s 9 11 mph 1017.5mb 49f 38f
Mon 11/20 11:04pm 2.5ft 4s 11 13 mph 1017.4mb 49f 39f
10:04pm 2.5ft 4s 11 13 mph 1016.9mb 49f 38f
9:04pm 2.5ft 4s 20 25 mph 1015.8mb 49f 39f
8:04pm 2.5ft 4s 18 25 mph 1015.3mb 49f 40f
7:04pm 3.5ft 4s 22 27 mph 1014.2mb 49f 41f
6:04pm 3ft 4s 22 27 mph 1013.6mb 49f 40f
5:04pm 3ft 4s 22 27 mph 1012.9mb 49f 41f
4:04pm 3ft 3s 25 31 mph 1012mb 49f 41f
3:04pm 3.5ft 4s 20 25 mph 1011.5mb 49f 40f
2:04pm 3.5ft 4s 25 31 mph 1010.5mb 49f 40f
1:04pm 3.5ft 4s 27 36 mph 1010.2mb 49f 40f
11:04am 4ft 4s 29 34 mph 1010.1mb 49f 37f
10:04am 3.5ft 4s 25 29 mph 1010mb 49f 37f
9:04am 2.5ft 3s 27 34 mph 1009.5mb 49f 37f
8:04am 2.5ft 3s 20 27 mph 1009.2mb 49f 36f
7:04am  -   -  18 22 mph 1008.9mb 49f 36f
6:04am 4ft 11s 18 22 mph 1007.8mb 49f 36f
5:04am  -   -  22 29 mph 1006.7mb 49f 37f
3:04am 2.5ft 3s 22 27 mph 1004.8mb 49f 38f
2:04am 2.5ft 3s 22 27 mph 1003.9mb 49f 38f
12:04am 3.5ft 4s 22 31 mph 1002.4mb 49f 39f
Sun 11/19 11:04pm 3.5ft 4s 29 38 mph 1001.3mb 49f 39f
10:04pm 3.5ft 4s 27 34 mph 1001.2mb 49f 39f
9:04pm 3.5ft 4s 27 36 mph 1000.6mb 49f 40f
8:04pm 3.5ft 4s 29 36 mph 999.4mb 49f 40f
7:04pm 3.5ft 4s 29 34 mph 997.8mb 49f 41f
6:04pm 5ft 4s 27 31 mph 996.8mb 49f 42f
5:04pm 5ft 4s 31 36 mph 994.8mb 49f 43f
4:04pm 6ft 4s 31 40 mph 992.6mb 50f 45f
3:04pm 6ft 4s 31 38 mph 989.8mb 50f 47f
2:04pm 6.5ft 6s 31 38 mph 987.5mb 49f 49f
1:04pm 6ft 6s 31 38 mph 985.4mb 50f 51f
12:04pm 6ft 6s 20 25 mph 984.3mb 50f 53f
11:04am 6ft 6s 22 27 mph 984.7mb 49f 53f
10:04am 6ft 6s 20 25 mph 985.8mb 49f 53f
9:04am 5ft 5s 20 22 mph 987.2mb 49f 53f
8:04am 4.5ft 5s 22 27 mph 988mb 49f 53f
7:04am 4.5ft 5s 20 22 mph 988.6mb 49f 53f
6:04am 4.5ft 5s 20 22 mph 989.4mb 49f 53f
5:04am 4ft 5s 18 22 mph 991.1mb 49f 53f
3:04am 3.5ft 5s 16 22 mph 994mb 49f 51f
2:04am 3.5ft 5s 13 16 mph 996mb 49f 51f
1:04am 3.5ft 5s 16 20 mph 997mb 49f 51f
12:04am 3ft 5s 18 27 mph 998.5mb 49f 52f
Sat 11/18 11:04pm 3.5ft 5s 13 16 mph 999.5mb 49f 51f